MSC Florentina — HPFH — position and weather

sailwx.info

Track history (hours):
 
Tides and Currents Weather Stations Pressure Air Temp Water Temp Dewpoint Dewpoint Depression Visibility Wind Speed Wind Dir Waves Ship Positions

MSC Florentina

Last reported at 2016-Jul-01 07:29 UTC. Time now 2016-Jul-02 00:28 UTC.
Position S 12°58' W 038°10'.

Length 300 m; draft 12.7 m.

Type: Ship. MMSI: 352870000.

Date/timePositionNaut miles runAvg speedWind from/ knotsBaromVisibWave heightAir tempDewpointWater temp
2016-Jul-01 07:29S 12°58' W 038°10'1718.4
2016-Jul-01 06:33S 13°05' W 038°25'10 9.6
2016-Jul-01 05:33S 13°00' W 038°33'4 4.0
2016-Jul-01 04:33S 12°57' W 038°30'0 0.3
2016-Jul-01 03:31S 12°57' W 038°31'0 0.0
2016-Jul-01 02:31S 12°57' W 038°31'0 0.0
2016-Jul-01 01:31S 12°57' W 038°31'0 0.0
2016-Jul-01 00:31S 12°57' W 038°31'0 0.0
2016-Jun-30 23:31S 12°57' W 038°31'0 0.0
2016-Jun-30 22:31S 12°57' W 038°31'0 0.0
2016-Jun-30 21:31S 12°57' W 038°31'0 0.0
2016-Jun-30 20:28S 12°57' W 038°31'0 0.0
2016-Jun-30 19:31S 12°57' W 038°31'0 0.0
2016-Jun-30 18:33S 12°57' W 038°31'0 0.0
2016-Jun-30 17:33S 12°57' W 038°31'2 1.8
2016-Jun-30 16:33S 12°57' W 038°32'7 6.6
2016-Jun-30 15:30S 13°03' W 038°34'1616.4
2016-Jun-30 14:32S 13°19' W 038°33'60919.1
2016-Jun-29 06:33S 23°03' W 041°35'23719.7
2016-Jun-28 18:32S 24°18' W 045°41'2020.5
2016-Jun-28 17:33S 24°16' W 046°03'1817.5
2016-Jun-28 16:33S 24°10' W 046°21'1110.5
2016-Jun-28 15:32S 23°60' W 046°19'2 2.3
2016-Jun-28 14:30S 23°58' W 046°18'0 0.0
2016-Jun-28 13:33S 23°58' W 046°18'0 0.0
2016-Jun-28 12:33S 23°58' W 046°18'0 0.0
2016-Jun-28 11:30S 23°58' W 046°18'0 0.0
2016-Jun-28 09:30S 23°58' W 046°18'0 0.0
2016-Jun-28 08:30S 23°58' W 046°18'0 0.0
2016-Jun-28 07:12S 23°58' W 046°18'0 0.0
2016-Jun-28 06:33S 23°58' W 046°18'0 0.0
2016-Jun-28 04:33S 23°58' W 046°18'0 0.0
2016-Jun-28 03:30S 23°58' W 046°18'0 0.0
2016-Jun-28 02:33S 23°58' W 046°18'0 0.0
2016-Jun-28 01:27S 23°58' W 046°18'0 0.0
2016-Jun-28 00:24S 23°58' W 046°18'0 0.0
2016-Jun-27 23:33S 23°58' W 046°18'2 1.6
2016-Jun-27 22:33S 23°59' W 046°18'4 4.2
2016-Jun-27 21:33S 24°02' W 046°21'9 9.0
2016-Jun-27 20:33S 24°11' W 046°18'5 1.3
2016-Jun-27 16:24S 24°11' W 046°13'0 0.0
2016-Jun-27 14:12S 24°11' W 046°13'0 0.1
2016-Jun-27 13:30S 24°11' W 046°13'0 0.0
2016-Jun-27 12:18S 24°11' W 046°13'0 0.0
2016-Jun-27 11:30S 24°11' W 046°13'0 0.0
2016-Jun-27 10:18S 24°11' W 046°13'0 0.0
2016-Jun-27 09:30S 24°11' W 046°13'0 0.0
2016-Jun-27 08:33S 24°11' W 046°13'0 0.0
2016-Jun-27 05:33S 24°11' W 046°13'0 0.0
2016-Jun-27 04:33S 24°11' W 046°13'0 0.0
2016-Jun-27 03:33S 24°11' W 046°13'0 0.0
2016-Jun-27 02:30S 24°11' W 046°13'0 0.0
2016-Jun-27 01:30S 24°11' W 046°13'0 0.0
2016-Jun-27 00:24S 24°11' W 046°13'0 0.0
2016-Jun-26 23:33S 24°11' W 046°13'0 0.0
2016-Jun-26 22:30S 24°11' W 046°13'0 0.0
2016-Jun-26 21:27S 24°11' W 046°13'0 0.0
2016-Jun-26 20:30S 24°11' W 046°13'0 0.0
2016-Jun-26 15:18S 24°11' W 046°13'0 0.1
2016-Jun-26 14:24S 24°11' W 046°12'0 0.0
2016-Jun-26 13:27S 24°11' W 046°12'0 0.1
2016-Jun-26 12:27S 24°11' W 046°13'0 0.0
2016-Jun-26 11:24S 24°11' W 046°13'0 0.0
2016-Jun-26 10:33S 24°11' W 046°13'0 0.1
2016-Jun-26 09:30S 24°11' W 046°13'0 0.1
2016-Jun-26 08:27S 24°11' W 046°13'0 0.1
2016-Jun-26 07:30S 24°11' W 046°13'0 0.1
2016-Jun-26 06:33S 24°11' W 046°12'0 0.0
2016-Jun-26 05:21S 24°11' W 046°12'0 0.0
2016-Jun-26 04:33S 24°11' W 046°12'0 0.0
2016-Jun-26 03:33S 24°11' W 046°13'0 0.0
2016-Jun-26 02:30S 24°11' W 046°13'0 0.0
2016-Jun-26 01:33S 24°11' W 046°12'0 0.0
2016-Jun-26 00:27S 24°11' W 046°12'0 0.1
2016-Jun-25 23:30S 24°11' W 046°13'9 9.1
2016-Jun-25 22:33S 24°13' W 046°04'30 0.7
2016-Jun-24 04:33S 24°39' W 046°19'1616.1
2016-Jun-24 03:32S 24°48' W 046°35'  
Track history (hours):
 
Tides and Currents Weather Stations Pressure Air Temp Water Temp Dewpoint Dewpoint Depression Visibility Wind Speed Wind Dir Waves Ship Positions

MSC Florentina

Last reported at 2016-Jul-01 07:29 UTC. Time now 2016-Jul-02 00:28 UTC.
Position S 12°58' W 038°10'.

Length 300 m; draft 12.7 m.

Type: Ship. MMSI: 352870000.

Date/timePositionNaut miles runAvg speedWind from/ knotsBaromVisibWave heightAir tempDewpointWater temp
2016-Jul-01 07:29S 12°58' W 038°10'1718.4
2016-Jul-01 06:33S 13°05' W 038°25'10 9.6
2016-Jul-01 05:33S 13°00' W 038°33'4 4.0
2016-Jul-01 04:33S 12°57' W 038°30'0 0.3
2016-Jul-01 03:31S 12°57' W 038°31'0 0.0
2016-Jul-01 02:31S 12°57' W 038°31'0 0.0
2016-Jul-01 01:31S 12°57' W 038°31'0 0.0
2016-Jul-01 00:31S 12°57' W 038°31'0 0.0
2016-Jun-30 23:31S 12°57' W 038°31'0 0.0
2016-Jun-30 22:31S 12°57' W 038°31'0 0.0
2016-Jun-30 21:31S 12°57' W 038°31'0 0.0
2016-Jun-30 20:28S 12°57' W 038°31'0 0.0
2016-Jun-30 19:31S 12°57' W 038°31'0 0.0
2016-Jun-30 18:33S 12°57' W 038°31'0 0.0
2016-Jun-30 17:33S 12°57' W 038°31'2 1.8
2016-Jun-30 16:33S 12°57' W 038°32'7 6.6
2016-Jun-30 15:30S 13°03' W 038°34'1616.4
2016-Jun-30 14:32S 13°19' W 038°33'60919.1
2016-Jun-29 06:33S 23°03' W 041°35'23719.7
2016-Jun-28 18:32S 24°18' W 045°41'2020.5
2016-Jun-28 17:33S 24°16' W 046°03'1817.5
2016-Jun-28 16:33S 24°10' W 046°21'1110.5
2016-Jun-28 15:32S 23°60' W 046°19'2 2.3
2016-Jun-28 14:30S 23°58' W 046°18'0 0.0
2016-Jun-28 13:33S 23°58' W 046°18'0 0.0
2016-Jun-28 12:33S 23°58' W 046°18'0 0.0
2016-Jun-28 11:30S 23°58' W 046°18'0 0.0
2016-Jun-28 09:30S 23°58' W 046°18'0 0.0
2016-Jun-28 08:30S 23°58' W 046°18'0 0.0
2016-Jun-28 07:12S 23°58' W 046°18'0 0.0
2016-Jun-28 06:33S 23°58' W 046°18'0 0.0
2016-Jun-28 04:33S 23°58' W 046°18'0 0.0
2016-Jun-28 03:30S 23°58' W 046°18'0 0.0
2016-Jun-28 02:33S 23°58' W 046°18'0 0.0
2016-Jun-28 01:27S 23°58' W 046°18'0 0.0
2016-Jun-28 00:24S 23°58' W 046°18'0 0.0
2016-Jun-27 23:33S 23°58' W 046°18'2 1.6
2016-Jun-27 22:33S 23°59' W 046°18'4 4.2
2016-Jun-27 21:33S 24°02' W 046°21'9 9.0
2016-Jun-27 20:33S 24°11' W 046°18'5 1.3
2016-Jun-27 16:24S 24°11' W 046°13'0 0.0
2016-Jun-27 14:12S 24°11' W 046°13'0 0.1
2016-Jun-27 13:30S 24°11' W 046°13'0 0.0
2016-Jun-27 12:18S 24°11' W 046°13'0 0.0
2016-Jun-27 11:30S 24°11' W 046°13'0 0.0
2016-Jun-27 10:18S 24°11' W 046°13'0 0.0
2016-Jun-27 09:30S 24°11' W 046°13'0 0.0
2016-Jun-27 08:33S 24°11' W 046°13'0 0.0
2016-Jun-27 05:33S 24°11' W 046°13'0 0.0
2016-Jun-27 04:33S 24°11' W 046°13'0 0.0
2016-Jun-27 03:33S 24°11' W 046°13'0 0.0
2016-Jun-27 02:30S 24°11' W 046°13'0 0.0
2016-Jun-27 01:30S 24°11' W 046°13'0 0.0
2016-Jun-27 00:24S 24°11' W 046°13'0 0.0
2016-Jun-26 23:33S 24°11' W 046°13'0 0.0
2016-Jun-26 22:30S 24°11' W 046°13'0 0.0
2016-Jun-26 21:27S 24°11' W 046°13'0 0.0
2016-Jun-26 20:30S 24°11' W 046°13'0 0.0
2016-Jun-26 15:18S 24°11' W 046°13'0 0.1
2016-Jun-26 14:24S 24°11' W 046°12'0 0.0
2016-Jun-26 13:27S 24°11' W 046°12'0 0.1
2016-Jun-26 12:27S 24°11' W 046°13'0 0.0
2016-Jun-26 11:24S 24°11' W 046°13'0 0.0
2016-Jun-26 10:33S 24°11' W 046°13'0 0.1
2016-Jun-26 09:30S 24°11' W 046°13'0 0.1
2016-Jun-26 08:27S 24°11' W 046°13'0 0.1
2016-Jun-26 07:30S 24°11' W 046°13'0 0.1
2016-Jun-26 06:33S 24°11' W 046°12'0 0.0
2016-Jun-26 05:21S 24°11' W 046°12'0 0.0
2016-Jun-26 04:33S 24°11' W 046°12'0 0.0
2016-Jun-26 03:33S 24°11' W 046°13'0 0.0
2016-Jun-26 02:30S 24°11' W 046°13'0 0.0
2016-Jun-26 01:33S 24°11' W 046°12'0 0.0
2016-Jun-26 00:27S 24°11' W 046°12'0 0.1
2016-Jun-25 23:30S 24°11' W 046°13'9 9.1
2016-Jun-25 22:33S 24°13' W 046°04'30 0.7
2016-Jun-24 04:33S 24°39' W 046°19'1616.1
2016-Jun-24 03:32S 24°48' W 046°35'  

Dump ship's entire track history